createdAt,value
2024-04-22T00:01:06.773Z,9.13
2024-04-22T00:03:08.619Z,9.16
2024-04-22T00:05:13.098Z,9.19
2024-04-22T00:07:16.675Z,9.19
2024-04-22T00:09:18.479Z,9.13
2024-04-22T00:11:20.421Z,9.09
2024-04-22T00:13:22.419Z,9.07
2024-04-22T00:15:24.452Z,9.08
2024-04-22T00:17:26.401Z,9.06
2024-04-22T00:19:28.280Z,9.05
2024-04-22T00:21:32.818Z,9.05
2024-04-22T00:23:34.671Z,9.06
2024-04-22T00:25:36.493Z,9.04
2024-04-22T00:27:38.372Z,9.04
2024-04-22T00:29:40.171Z,9.00
2024-04-22T00:31:41.962Z,9.01
2024-04-22T00:33:43.757Z,8.95
2024-04-22T00:35:55.286Z,8.99
2024-04-22T00:37:59.738Z,8.95
2024-04-22T00:40:01.776Z,8.96
2024-04-22T00:42:03.603Z,8.97
2024-04-22T00:44:12.471Z,8.98
2024-04-22T00:46:14.710Z,9.01
2024-04-22T00:48:19.047Z,8.97
2024-04-22T00:50:21.238Z,9.00
2024-04-22T00:52:23.317Z,8.97
2024-04-22T00:54:28.010Z,8.93
2024-04-22T00:56:29.958Z,8.94
2024-04-22T00:58:32.056Z,8.92
2024-04-22T01:00:35.430Z,8.89
2024-04-22T01:02:37.389Z,8.82
2024-04-22T01:04:41.641Z,8.81
2024-04-22T01:06:43.644Z,8.78
2024-04-22T01:08:46.576Z,8.76
2024-04-22T01:10:51.361Z,8.77
2024-04-22T01:12:53.380Z,8.78
2024-04-22T01:14:55.307Z,8.78
2024-04-22T01:16:57.289Z,8.76
2024-04-22T01:18:59.099Z,8.74
2024-04-22T01:21:01.060Z,8.71
2024-04-22T01:23:05.536Z,8.71
2024-04-22T01:25:08.860Z,8.74
2024-04-22T01:27:11.811Z,8.75
2024-04-22T01:29:13.580Z,8.75
2024-04-22T01:31:17.060Z,8.75
2024-04-22T01:33:18.863Z,8.74
2024-04-22T01:35:20.671Z,8.73
2024-04-22T01:37:22.494Z,8.64
2024-04-22T01:39:26.898Z,8.60
2024-04-22T01:41:28.755Z,8.59
2024-04-22T01:43:30.647Z,8.55
2024-04-22T01:45:32.596Z,8.56
2024-04-22T01:47:34.446Z,8.56
2024-04-22T01:49:36.466Z,8.52
2024-04-22T01:51:38.271Z,8.30
2024-04-22T01:53:40.160Z,8.34
2024-04-22T01:55:44.689Z,8.34
2024-04-22T01:57:46.529Z,8.33
2024-04-22T01:59:49.013Z,8.33
2024-04-22T02:01:50.921Z,8.27
2024-04-22T02:03:52.775Z,8.28
2024-04-22T02:05:54.683Z,8.31
2024-04-22T02:07:56.460Z,8.32
2024-04-22T02:10:05.953Z,8.34
2024-04-22T02:12:17.428Z,8.35
2024-04-22T02:14:19.239Z,8.36
2024-04-22T02:16:21.053Z,8.34
2024-04-22T02:18:22.934Z,8.38
2024-04-22T02:20:24.731Z,8.39
2024-04-22T02:22:26.549Z,8.38
2024-04-22T02:24:28.284Z,8.32
2024-04-22T02:26:30.157Z,8.34
2024-04-22T02:28:34.797Z,8.28
2024-04-22T02:30:36.650Z,8.23
2024-04-22T02:32:38.493Z,8.27
2024-04-22T02:34:40.414Z,8.27
2024-04-22T02:36:42.183Z,8.26
2024-04-22T02:38:43.996Z,8.25
2024-04-22T02:40:45.848Z,8.23
2024-04-22T02:42:47.572Z,8.21
2024-04-22T02:44:51.863Z,8.23
2024-04-22T02:46:53.706Z,8.21
2024-04-22T02:48:55.581Z,8.20
2024-04-22T02:51:02.121Z,8.17
2024-04-22T02:53:04.515Z,8.12
2024-04-22T02:55:07.161Z,8.13
2024-04-22T02:57:09.131Z,8.09
2024-04-22T02:59:11.164Z,8.07
2024-04-22T03:01:15.885Z,8.08
2024-04-22T03:03:17.830Z,8.06
2024-04-22T03:05:19.679Z,8.00
2024-04-22T03:07:21.452Z,8.01
2024-04-22T03:09:23.285Z,7.94
2024-04-22T03:11:25.041Z,7.85
2024-04-22T03:13:27.322Z,7.81
2024-04-22T03:15:29.052Z,7.82
2024-04-22T03:17:33.605Z,7.88
2024-04-22T03:19:35.500Z,7.87
2024-04-22T03:21:37.222Z,7.89
2024-04-22T03:23:39.063Z,7.88
2024-04-22T03:25:40.888Z,7.90
2024-04-22T03:27:42.704Z,7.95
2024-04-22T03:29:44.556Z,7.94
2024-04-22T03:31:46.429Z,7.94
2024-04-22T03:33:53.125Z,7.92
2024-04-22T03:36:00.464Z,7.94
2024-04-22T03:38:02.225Z,7.91
2024-04-22T03:40:04.531Z,7.90
2024-04-22T03:42:06.603Z,7.88
2024-04-22T03:44:08.539Z,7.88
2024-04-22T03:46:10.326Z,7.83
2024-04-22T03:48:12.122Z,7.84
2024-04-22T03:50:16.684Z,7.84
2024-04-22T03:52:19.379Z,7.87
2024-04-22T03:54:21.260Z,7.84
2024-04-22T03:56:23.094Z,7.85
2024-04-22T03:58:24.900Z,7.86
2024-04-22T04:00:26.752Z,7.79
2024-04-22T04:02:28.517Z,7.80
2024-04-22T04:04:30.413Z,7.79
2024-04-22T04:06:35.018Z,7.81
2024-04-22T04:08:36.855Z,7.81
2024-04-22T04:10:38.661Z,7.81
2024-04-22T04:12:40.575Z,7.79
2024-04-22T04:14:42.311Z,7.79
2024-04-22T04:16:44.133Z,7.79
2024-04-22T04:18:45.946Z,7.79
2024-04-22T04:20:47.759Z,7.77
2024-04-22T04:22:52.369Z,7.77
2024-04-22T04:24:54.050Z,7.73
2024-04-22T04:26:55.833Z,7.68
2024-04-22T04:28:57.739Z,7.70
2024-04-22T04:31:01.650Z,7.70
2024-04-22T04:33:03.984Z,7.68
2024-04-22T04:35:08.247Z,7.67
2024-04-22T04:37:10.459Z,7.67
2024-04-22T04:39:14.921Z,7.66
2024-04-22T04:41:16.751Z,7.60
2024-04-22T04:43:18.606Z,7.59
2024-04-22T04:45:20.440Z,7.60
2024-04-22T04:47:22.225Z,7.57
2024-04-22T04:49:24.333Z,7.56
2024-04-22T04:51:26.206Z,7.56
2024-04-22T04:53:27.963Z,7.53
2024-04-22T04:55:32.484Z,7.48
2024-04-22T04:57:34.315Z,7.41
2024-04-22T04:59:36.243Z,7.43
2024-04-22T05:01:38.268Z,7.38
2024-04-22T05:03:40.221Z,7.37
2024-04-22T05:05:42.099Z,7.39
2024-04-22T05:07:43.892Z,7.41
2024-04-22T05:09:45.952Z,7.39
2024-04-22T05:11:50.970Z,7.41
2024-04-22T05:13:53.053Z,7.43
2024-04-22T05:15:54.855Z,7.39
2024-04-22T05:17:56.702Z,7.44
2024-04-22T05:19:58.552Z,7.46
2024-04-22T05:22:00.395Z,7.46
2024-04-22T05:24:09.532Z,7.42
2024-04-22T05:26:11.256Z,7.45
2024-04-22T05:28:15.798Z,7.46
2024-04-22T05:30:17.783Z,7.46
2024-04-22T05:32:20.273Z,7.49
2024-04-22T05:34:22.172Z,7.48
2024-04-22T05:36:23.967Z,7.53
2024-04-22T05:38:25.776Z,7.50
2024-04-22T05:40:27.544Z,7.48
2024-04-22T05:42:29.298Z,7.53
2024-04-22T05:44:33.712Z,7.52
2024-04-22T05:46:35.469Z,7.52
2024-04-22T05:48:37.515Z,7.60
2024-04-22T05:50:39.435Z,7.65
2024-04-22T05:52:41.349Z,7.68
2024-04-22T05:54:43.162Z,7.70
2024-04-22T05:56:45.000Z,7.77
2024-04-22T05:58:46.958Z,7.81
2024-04-22T06:00:51.425Z,7.82
2024-04-22T06:02:53.259Z,7.87
2024-04-22T06:04:55.154Z,7.91
2024-04-22T06:06:57.179Z,8.01
2024-04-22T06:08:59.138Z,8.07
2024-04-22T06:11:03.936Z,8.16
2024-04-22T06:13:05.920Z,8.24
2024-04-22T06:15:08.160Z,8.32
2024-04-22T06:17:12.772Z,8.39
2024-04-22T06:19:14.634Z,8.47
2024-04-22T06:21:16.405Z,8.52
2024-04-22T06:23:19.589Z,8.58
2024-04-22T06:25:23.549Z,8.66
2024-04-22T06:27:25.335Z,8.72
2024-04-22T06:29:27.328Z,8.76
2024-04-22T06:31:29.158Z,8.81
2024-04-22T06:33:33.627Z,8.84
2024-04-22T06:35:35.381Z,8.93
2024-04-22T06:37:37.306Z,8.95
2024-04-22T06:39:39.261Z,9.00
2024-04-22T06:41:41.262Z,9.06
2024-04-22T06:43:44.574Z,9.15
2024-04-22T06:45:46.405Z,9.18
2024-04-22T06:47:48.613Z,9.24
2024-04-22T06:49:53.111Z,9.32
2024-04-22T06:51:55.152Z,9.35
2024-04-22T06:53:57.018Z,9.40
2024-04-22T06:55:58.971Z,9.50
2024-04-22T06:58:03.117Z,9.63
2024-04-22T07:00:06.069Z,9.72
2024-04-22T07:02:15.105Z,9.81
2024-04-22T07:04:20.291Z,9.84
2024-04-22T07:06:24.935Z,9.93
2024-04-22T07:08:26.837Z,9.99
2024-04-22T07:10:28.713Z,10.06
2024-04-22T07:12:30.880Z,10.09
2024-04-22T07:14:32.688Z,10.12
2024-04-22T07:16:34.558Z,10.16
2024-04-22T07:18:36.366Z,10.30
2024-04-22T07:20:38.195Z,10.38
2024-04-22T07:22:43.583Z,10.45
2024-04-22T07:24:54.844Z,10.51
2024-04-22T07:27:07.759Z,10.58
2024-04-22T07:29:13.330Z,10.66
2024-04-22T07:31:16.296Z,10.74
2024-04-22T07:33:18.825Z,10.83
2024-04-22T07:35:21.723Z,10.90
2024-04-22T07:37:30.701Z,10.99
2024-04-22T07:39:36.387Z,11.07
2024-04-22T07:41:38.889Z,11.10
2024-04-22T07:43:40.677Z,11.10
2024-04-22T07:45:42.428Z,11.18
2024-04-22T07:47:44.788Z,11.25
2024-04-22T07:49:46.905Z,11.31
2024-04-22T07:51:48.839Z,11.38
2024-04-22T07:53:51.162Z,11.36
2024-04-22T07:55:56.198Z,11.44
2024-04-22T07:57:59.677Z,11.44
2024-04-22T08:00:04.076Z,11.24
2024-04-22T08:02:06.975Z,11.23
2024-04-22T08:04:09.755Z,11.36
2024-04-22T08:06:16.866Z,11.35
2024-04-22T08:08:20.284Z,11.26
2024-04-22T08:10:22.179Z,11.39
2024-04-22T08:12:26.768Z,11.48
2024-04-22T08:14:28.808Z,11.53
2024-04-22T08:16:33.188Z,11.44
2024-04-22T08:18:35.144Z,11.49
2024-04-22T08:20:37.278Z,11.56
2024-04-22T08:22:39.405Z,11.65
2024-04-22T08:24:41.504Z,11.68
2024-04-22T08:26:43.304Z,11.75
2024-04-22T08:28:47.922Z,11.82
2024-04-22T08:30:49.955Z,11.93
2024-04-22T08:32:51.864Z,11.88
2024-04-22T08:34:54.079Z,11.98
2024-04-22T08:36:56.117Z,12.01
2024-04-22T08:38:57.992Z,11.94
2024-04-22T08:41:00.506Z,11.93
2024-04-22T08:43:02.772Z,12.00
2024-04-22T08:45:08.376Z,11.99
2024-04-22T08:47:10.418Z,11.95
2024-04-22T08:49:12.323Z,12.06
2024-04-22T08:51:14.970Z,12.17
2024-04-22T08:53:17.107Z,12.23
2024-04-22T08:55:19.315Z,12.29
2024-04-22T08:57:21.329Z,12.29
2024-04-22T08:59:33.192Z,12.16
2024-04-22T09:01:42.616Z,12.29
2024-04-22T09:03:44.986Z,12.42
2024-04-22T09:05:47.347Z,12.44
2024-04-22T09:07:52.355Z,12.44
2024-04-22T09:10:14.701Z,12.54
2024-04-22T09:12:18.381Z,12.64
2024-04-22T09:14:21.205Z,12.56
2024-04-22T09:16:26.025Z,12.53
2024-04-22T09:18:31.094Z,12.42
2024-04-22T09:20:33.323Z,12.35
2024-04-22T09:22:35.277Z,12.12
2024-04-22T09:24:37.257Z,11.93
2024-04-22T09:26:39.068Z,11.80
2024-04-22T09:28:42.010Z,11.88
2024-04-22T09:30:50.012Z,11.84
2024-04-22T09:32:53.851Z,11.95
2024-04-22T09:35:16.505Z,11.93
2024-04-22T09:37:21.129Z,11.97
2024-04-22T09:39:24.243Z,12.08
2024-04-22T09:41:27.465Z,12.03
2024-04-22T09:43:30.443Z,12.07
2024-04-22T09:45:34.140Z,12.08
2024-04-22T09:47:36.952Z,12.20
2024-04-22T09:49:40.909Z,12.31
2024-04-22T09:51:46.213Z,12.48
2024-04-22T09:53:48.450Z,12.58
2024-04-22T09:55:53.447Z,12.52
2024-04-22T09:57:56.416Z,12.64
2024-04-22T09:59:59.488Z,12.62
2024-04-22T10:02:01.685Z,12.73
2024-04-22T10:04:03.959Z,12.81
2024-04-22T10:06:10.381Z,12.88
2024-04-22T10:08:17.042Z,12.87
2024-04-22T10:10:19.554Z,12.95
2024-04-22T10:12:25.894Z,13.04
2024-04-22T10:14:28.223Z,13.14
2024-04-22T10:16:30.193Z,13.16
2024-04-22T10:18:32.628Z,13.11
2024-04-22T10:20:35.785Z,13.22
2024-04-22T10:22:38.652Z,13.22
2024-04-22T10:24:43.101Z,13.34
2024-04-22T10:26:56.269Z,13.49
2024-04-22T10:29:03.720Z,13.51
2024-04-22T10:31:05.551Z,13.42
2024-04-22T10:33:07.642Z,13.55
2024-04-22T10:35:09.681Z,13.58
2024-04-22T10:37:11.645Z,13.48
2024-04-22T10:39:13.578Z,13.44
2024-04-22T10:41:19.593Z,13.27
2024-04-22T10:43:21.719Z,13.30
2024-04-22T10:45:23.958Z,13.25
2024-04-22T10:47:26.159Z,13.24
2024-04-22T10:49:28.623Z,13.31
2024-04-22T10:51:30.665Z,13.19
2024-04-22T10:53:36.109Z,13.23
2024-04-22T10:55:39.432Z,13.22
2024-04-22T10:57:44.555Z,13.34
2024-04-22T10:59:46.377Z,13.39
2024-04-22T11:01:48.792Z,13.50
2024-04-22T11:03:50.966Z,13.64
2024-04-22T11:05:59.473Z,13.79
2024-04-22T11:08:02.711Z,13.89
2024-04-22T11:10:05.565Z,14.00
2024-04-22T11:12:08.717Z,14.09
2024-04-22T11:14:14.586Z,14.33
2024-04-22T11:16:16.494Z,14.52
2024-04-22T11:18:19.698Z,14.38
2024-04-22T11:20:21.916Z,14.41
2024-04-22T11:22:24.085Z,14.14
2024-04-22T11:24:26.080Z,13.84
2024-04-22T11:26:29.393Z,13.85
2024-04-22T11:28:31.523Z,13.92
2024-04-22T11:30:37.757Z,13.88
2024-04-22T11:32:41.222Z,13.89
2024-04-22T11:34:43.251Z,13.72
2024-04-22T11:36:45.081Z,13.58
2024-04-22T11:38:46.921Z,13.59
2024-04-22T11:40:49.192Z,13.57
2024-04-22T11:42:51.106Z,13.54
2024-04-22T11:44:52.965Z,13.36
2024-04-22T11:46:57.422Z,13.20
2024-04-22T11:49:01.873Z,12.93
2024-04-22T11:51:04.108Z,12.86
2024-04-22T11:53:14.447Z,12.97
2024-04-22T11:55:20.107Z,12.79
2024-04-22T11:57:22.051Z,12.76
2024-04-22T11:59:23.973Z,12.56
2024-04-22T12:01:26.427Z,12.64
2024-04-22T12:03:31.205Z,12.70
2024-04-22T12:05:33.331Z,12.76
2024-04-22T12:07:35.780Z,12.63
2024-04-22T12:09:37.612Z,12.68
2024-04-22T12:11:39.574Z,12.59
2024-04-22T12:13:41.538Z,12.59
2024-04-22T12:15:43.502Z,12.50
2024-04-22T12:17:45.581Z,12.53
2024-04-22T12:19:50.034Z,12.56
2024-04-22T12:21:52.002Z,12.55
2024-04-22T12:23:54.154Z,12.64
2024-04-22T12:25:56.089Z,12.50
2024-04-22T12:28:05.580Z,12.57
2024-04-22T12:30:15.272Z,12.70
2024-04-22T12:32:17.406Z,12.81
2024-04-22T12:34:19.439Z,12.77
2024-04-22T12:36:24.030Z,12.78
2024-04-22T12:38:25.898Z,12.94
2024-04-22T12:40:27.852Z,13.39
2024-04-22T12:42:29.732Z,13.49
2024-04-22T12:44:31.466Z,13.38
2024-04-22T12:46:33.666Z,13.65
2024-04-22T12:48:35.462Z,13.98
2024-04-22T12:50:37.456Z,13.79
2024-04-22T12:52:42.209Z,13.75
2024-04-22T12:54:44.416Z,13.58
2024-04-22T12:56:46.212Z,13.38
2024-04-22T12:58:48.092Z,13.14
2024-04-22T13:00:50.298Z,12.81
2024-04-22T13:02:52.632Z,12.77
2024-04-22T13:04:54.484Z,12.76
2024-04-22T13:06:56.329Z,12.61
2024-04-22T13:09:02.449Z,12.57
2024-04-22T13:11:05.727Z,12.61
2024-04-22T13:13:07.625Z,12.61
2024-04-22T13:15:09.503Z,12.57
2024-04-22T13:17:11.395Z,12.58
2024-04-22T13:19:13.273Z,12.44
2024-04-22T13:21:15.029Z,12.59
2024-04-22T13:23:16.785Z,12.63
2024-04-22T13:25:21.283Z,12.77
2024-04-22T13:27:23.116Z,13.00
2024-04-22T13:29:25.078Z,13.16
2024-04-22T13:31:36.279Z,13.13
2024-04-22T13:33:45.796Z,13.14
2024-04-22T13:35:47.634Z,13.26
2024-04-22T13:37:49.444Z,13.26
2024-04-22T13:39:51.381Z,13.14
2024-04-22T13:41:56.116Z,13.29
2024-04-22T13:43:57.974Z,13.46
2024-04-22T13:46:00.002Z,13.82
2024-04-22T13:48:02.008Z,13.99
2024-04-22T13:50:04.726Z,14.64
2024-04-22T13:52:06.992Z,15.39
2024-04-22T13:54:09.090Z,16.24
2024-04-22T13:56:11.033Z,16.75
2024-04-22T13:58:15.492Z,17.49
2024-04-22T14:00:18.539Z,17.55
2024-04-22T14:02:20.510Z,17.33
2024-04-22T14:04:22.458Z,17.00
2024-04-22T14:06:24.410Z,16.54
2024-04-22T14:08:26.597Z,16.41
2024-04-22T14:10:28.594Z,16.24
2024-04-22T14:12:30.496Z,16.00
2024-04-22T14:14:35.358Z,15.84
2024-04-22T14:16:37.409Z,15.51
2024-04-22T14:18:39.336Z,15.25
2024-04-22T14:20:41.424Z,15.32
2024-04-22T14:22:43.311Z,15.30
2024-04-22T14:24:45.309Z,15.28
2024-04-22T14:26:47.323Z,15.22
2024-04-22T14:28:49.522Z,15.25
2024-04-22T14:30:53.940Z,15.23
2024-04-22T14:32:55.974Z,15.20
2024-04-22T14:34:57.931Z,15.18
2024-04-22T14:36:59.989Z,15.16
2024-04-22T14:39:02.146Z,15.02
2024-04-22T14:41:04.536Z,15.01
2024-04-22T14:43:06.446Z,14.85
2024-04-22T14:45:08.756Z,14.72
2024-04-22T14:47:13.300Z,14.73
2024-04-22T14:49:15.468Z,14.66
2024-04-22T14:51:17.374Z,14.71
2024-04-22T14:53:20.739Z,14.66
2024-04-22T14:55:23.392Z,14.58
2024-04-22T14:57:25.336Z,14.38
2024-04-22T14:59:27.211Z,14.30
2024-04-22T15:01:29.467Z,14.27
2024-04-22T15:03:34.992Z,14.15
2024-04-22T15:05:36.873Z,14.04
2024-04-22T15:07:38.985Z,14.08
2024-04-22T15:09:41.181Z,14.17
2024-04-22T15:11:43.053Z,14.19
2024-04-22T15:13:45.078Z,14.09
2024-04-22T15:15:47.400Z,14.08
2024-04-22T15:17:49.516Z,13.94
2024-04-22T15:19:54.252Z,13.99
2024-04-22T15:21:56.232Z,14.08
2024-04-22T15:23:58.358Z,14.12
2024-04-22T15:26:00.146Z,14.01
2024-04-22T15:28:02.250Z,14.04
2024-04-22T15:30:05.327Z,13.99
2024-04-22T15:32:08.342Z,14.08
2024-04-22T15:34:10.300Z,14.14
2024-04-22T15:36:15.668Z,14.22
2024-04-22T15:38:17.799Z,14.24
2024-04-22T15:40:21.328Z,14.24
2024-04-22T15:42:23.398Z,14.14
2024-04-22T15:44:25.209Z,14.04
2024-04-22T15:46:27.175Z,13.99
2024-04-22T15:48:29.745Z,13.87
2024-04-22T15:50:31.771Z,13.95
2024-04-22T15:52:36.728Z,13.92
2024-04-22T15:54:38.666Z,13.84
2024-04-22T15:56:42.191Z,13.83
2024-04-22T15:58:44.640Z,13.86
2024-04-22T16:00:46.546Z,13.86
2024-04-22T16:02:48.418Z,13.89
2024-04-22T16:04:50.338Z,13.95
2024-04-22T16:06:52.290Z,14.01
2024-04-22T16:08:56.912Z,14.05
2024-04-22T16:10:58.872Z,13.86
2024-04-22T16:13:00.732Z,13.76
2024-04-22T16:15:02.568Z,13.80
2024-04-22T16:17:04.883Z,13.81
2024-04-22T16:19:09.359Z,13.79
2024-04-22T16:21:15.433Z,13.87
2024-04-22T16:23:19.387Z,13.82
2024-04-22T16:25:23.963Z,13.82
2024-04-22T16:27:25.810Z,13.77
2024-04-22T16:29:27.841Z,13.73
2024-04-22T16:31:29.720Z,13.61
2024-04-22T16:33:31.861Z,13.64
2024-04-22T16:35:35.278Z,13.75
2024-04-22T16:37:38.843Z,13.84
2024-04-22T16:39:40.948Z,13.86
2024-04-22T16:41:45.529Z,13.77
2024-04-22T16:43:47.451Z,13.63
2024-04-22T16:45:49.342Z,13.63
2024-04-22T16:47:51.321Z,13.61
2024-04-22T16:49:53.339Z,13.53
2024-04-22T16:51:55.534Z,13.46
2024-04-22T16:53:57.428Z,13.39
2024-04-22T16:55:59.300Z,13.26
2024-04-22T16:58:03.762Z,12.95
2024-04-22T17:00:06.244Z,12.93
2024-04-22T17:02:08.215Z,12.69
2024-04-22T17:04:10.258Z,12.58
2024-04-22T17:06:12.558Z,12.54
2024-04-22T17:08:14.956Z,12.47
2024-04-22T17:10:17.287Z,12.43
2024-04-22T17:12:19.593Z,12.44
2024-04-22T17:14:24.157Z,12.41
2024-04-22T17:16:26.254Z,12.40
2024-04-22T17:18:28.284Z,12.38
2024-04-22T17:20:30.425Z,12.34
2024-04-22T17:22:32.439Z,12.32
2024-04-22T17:24:34.863Z,12.15
2024-04-22T17:26:36.920Z,12.15
2024-04-22T17:28:39.278Z,12.21
2024-04-22T17:30:43.713Z,12.14
2024-04-22T17:32:45.820Z,12.11
2024-04-22T17:34:48.048Z,12.11
2024-04-22T17:36:49.918Z,12.08
2024-04-22T17:38:51.746Z,12.12
2024-04-22T17:40:54.256Z,12.14
2024-04-22T17:42:56.406Z,12.18
2024-04-22T17:44:58.752Z,12.10
2024-04-22T17:47:03.588Z,12.11
2024-04-22T17:49:07.231Z,12.08
2024-04-22T17:51:15.329Z,12.08
2024-04-22T17:53:17.661Z,12.08
2024-04-22T17:55:19.681Z,11.98
2024-04-22T17:57:21.602Z,11.96
2024-04-22T17:59:23.755Z,11.97
2024-04-22T18:01:25.803Z,11.92
2024-04-22T18:03:30.302Z,11.91
2024-04-22T18:05:32.259Z,11.93
2024-04-22T18:07:34.540Z,11.87
2024-04-22T18:09:36.493Z,11.81
2024-04-22T18:11:38.750Z,11.78
2024-04-22T18:13:40.831Z,11.70
2024-04-22T18:15:43.042Z,11.76
2024-04-22T18:17:44.969Z,11.72
2024-04-22T18:19:49.952Z,11.65
2024-04-22T18:21:51.657Z,11.67
2024-04-22T18:23:53.762Z,11.74
2024-04-22T18:26:02.184Z,11.67
2024-04-22T18:28:08.360Z,11.69
2024-04-22T18:30:11.345Z,11.63
2024-04-22T18:32:13.439Z,11.62
2024-04-22T18:34:15.614Z,11.63
2024-04-22T18:36:20.594Z,11.61
2024-04-22T18:38:22.980Z,11.56
2024-04-22T18:40:25.087Z,11.60
2024-04-22T18:42:27.367Z,11.57
2024-04-22T18:44:29.361Z,11.57
2024-04-22T18:46:31.517Z,11.50
2024-04-22T18:48:33.728Z,11.46
2024-04-22T18:50:35.852Z,11.41
2024-04-22T18:52:41.072Z,11.37
2024-04-22T18:54:43.296Z,11.42
2024-04-22T18:56:45.563Z,11.36
2024-04-22T18:58:48.158Z,11.34
2024-04-22T19:00:50.607Z,11.29
2024-04-22T19:02:55.563Z,11.29
2024-04-22T19:04:57.801Z,11.27
2024-04-22T19:06:59.876Z,11.24
2024-04-22T19:09:05.181Z,11.29
2024-04-22T19:11:07.828Z,11.26
2024-04-22T19:13:09.999Z,11.17
2024-04-22T19:15:12.022Z,11.19
2024-04-22T19:17:14.377Z,11.23
2024-04-22T19:19:17.385Z,11.27
2024-04-22T19:21:19.508Z,11.27
2024-04-22T19:23:26.498Z,11.24
2024-04-22T19:25:31.483Z,11.22
2024-04-22T19:27:33.891Z,11.26
2024-04-22T19:29:37.647Z,11.31
2024-04-22T19:31:39.598Z,11.29
2024-04-22T19:33:42.510Z,11.28
2024-04-22T19:35:50.544Z,11.31
2024-04-22T19:37:52.767Z,11.28
2024-04-22T19:40:00.513Z,11.29
2024-04-22T19:42:05.834Z,11.30
2024-04-22T19:44:07.959Z,11.29
2024-04-22T19:46:09.852Z,11.29
2024-04-22T19:48:12.363Z,11.27
2024-04-22T19:50:14.644Z,11.31
2024-04-22T19:52:16.597Z,11.30
2024-04-22T19:54:18.944Z,11.33
2024-04-22T19:56:20.806Z,11.36
2024-04-22T19:58:25.280Z,11.33
2024-04-22T20:00:27.460Z,11.35
2024-04-22T20:02:29.508Z,11.27
2024-04-22T20:04:31.582Z,11.22
2024-04-22T20:06:33.494Z,11.19
2024-04-22T20:08:35.271Z,11.15
2024-04-22T20:10:39.990Z,11.18
2024-04-22T20:12:42.775Z,11.18
2024-04-22T20:14:47.811Z,11.16
2024-04-22T20:16:52.181Z,11.13
2024-04-22T20:18:54.863Z,11.14
2024-04-22T20:20:57.545Z,11.10
2024-04-22T20:22:59.849Z,11.05
2024-04-22T20:25:02.037Z,11.03
2024-04-22T20:27:04.452Z,11.02
2024-04-22T20:29:06.469Z,10.92
2024-04-22T20:31:11.400Z,10.85
2024-04-22T20:33:13.757Z,10.87
2024-04-22T20:35:15.972Z,10.82
2024-04-22T20:37:18.199Z,10.65
2024-04-22T20:39:20.269Z,10.66
2024-04-22T20:41:22.248Z,10.55
2024-04-22T20:43:24.493Z,10.46
2024-04-22T20:45:26.320Z,10.46
2024-04-22T20:47:31.341Z,10.53
2024-04-22T20:49:33.474Z,10.52
2024-04-22T20:51:35.532Z,10.61
2024-04-22T20:53:37.610Z,10.60
2024-04-22T20:55:39.724Z,10.52
2024-04-22T20:57:41.948Z,10.34
2024-04-22T20:59:43.794Z,10.40
2024-04-22T21:01:45.616Z,10.45
2024-04-22T21:03:50.394Z,10.48
2024-04-22T21:05:55.598Z,10.51
2024-04-22T21:07:57.520Z,10.50
2024-04-22T21:09:59.269Z,10.49
2024-04-22T21:12:01.040Z,10.49
2024-04-22T21:14:03.512Z,10.51
2024-04-22T21:16:14.585Z,10.57
2024-04-22T21:18:20.038Z,10.54
2024-04-22T21:20:24.826Z,10.53
2024-04-22T21:22:26.885Z,10.55
2024-04-22T21:24:28.836Z,10.59
2024-04-22T21:26:33.900Z,10.53
2024-04-22T21:28:35.847Z,10.35
2024-04-22T21:30:37.898Z,10.24
2024-04-22T21:32:39.853Z,10.11
2024-04-22T21:34:41.913Z,10.06
2024-04-22T21:36:46.638Z,9.83
2024-04-22T21:38:48.574Z,9.81
2024-04-22T21:40:50.744Z,9.95
2024-04-22T21:42:52.732Z,10.04
2024-04-22T21:44:54.558Z,10.11
2024-04-22T21:46:56.461Z,10.13
2024-04-22T21:48:59.306Z,10.21
2024-04-22T21:51:01.559Z,10.19
2024-04-22T21:53:06.209Z,10.19
2024-04-22T21:55:11.237Z,10.22
2024-04-22T21:57:50.622Z,10.17
2024-04-22T22:00:29.964Z,10.00
2024-04-22T22:03:09.000Z,10.04
2024-04-22T22:05:48.144Z,10.02
2024-04-22T22:07:49.675Z,10.06
2024-04-22T22:09:55.290Z,10.06
2024-04-22T22:11:57.251Z,10.10
2024-04-22T22:13:59.139Z,10.12
2024-04-22T22:16:00.954Z,10.13
2024-04-22T22:18:03.181Z,10.08
2024-04-22T22:20:06.935Z,10.08
2024-04-22T22:22:08.779Z,10.04
2024-04-22T22:24:10.900Z,10.09
2024-04-22T22:26:16.548Z,10.07
2024-04-22T22:28:18.306Z,10.10
2024-04-22T22:30:20.149Z,10.11
2024-04-22T22:32:22.100Z,10.11
2024-04-22T22:34:23.958Z,10.09
2024-04-22T22:36:25.763Z,10.02
2024-04-22T22:38:27.549Z,9.98
2024-04-22T22:40:29.355Z,9.96
2024-04-22T22:42:33.755Z,9.80
2024-04-22T22:44:35.644Z,9.81
2024-04-22T22:46:37.491Z,9.80
2024-04-22T22:48:39.251Z,9.72
2024-04-22T22:50:41.107Z,9.62
2024-04-22T22:52:43.340Z,9.68
2024-04-22T22:54:45.153Z,9.68
2024-04-22T22:56:46.907Z,9.65
2024-04-22T22:58:51.282Z,9.68
2024-04-22T23:00:53.192Z,9.72
2024-04-22T23:02:55.270Z,9.76
2024-04-22T23:04:57.106Z,9.76
2024-04-22T23:07:05.103Z,9.65
2024-04-22T23:09:07.081Z,9.68
2024-04-22T23:11:09.023Z,9.67
2024-04-22T23:13:10.904Z,9.68
2024-04-22T23:15:15.647Z,9.61
2024-04-22T23:17:17.520Z,9.57
2024-04-22T23:19:19.288Z,9.54
2024-04-22T23:21:20.992Z,9.51
2024-04-22T23:23:22.767Z,9.48
2024-04-22T23:25:24.625Z,9.55
2024-04-22T23:27:26.491Z,9.48
2024-04-22T23:29:28.319Z,9.48
2024-04-22T23:31:32.851Z,9.49
2024-04-22T23:33:34.884Z,9.53
2024-04-22T23:35:36.866Z,9.54
2024-04-22T23:37:38.623Z,9.50
2024-04-22T23:39:40.355Z,9.41
2024-04-22T23:41:42.389Z,9.43
2024-04-22T23:43:44.262Z,9.43
2024-04-22T23:45:46.031Z,9.43
2024-04-22T23:47:50.442Z,9.40
2024-04-22T23:49:52.410Z,9.40
2024-04-22T23:51:54.264Z,9.40
2024-04-22T23:53:56.095Z,9.46
2024-04-22T23:55:57.916Z,9.43
2024-04-22T23:57:59.833Z,9.38
